Time;durP1;ratioP1;P1;durP2;ratioP2;P2;SDS_P1;SDS_P2;PMS_P1;PMS_P2;Temp;Humidity;BMP_temperature;BMP_pressure;BME280_temperature;BME280_humidity;BME280_pressure;Samples;Min_cycle;Max_cycle;Signal;HPM_P1;HPM_P2
2024/02/15 05:01:13;;;;;;;11.40;6.20;;;11.00;99.90;;;;;;5620664;23;20589;-72
2024/02/15 05:03:40;;;;;;;8.60;5.17;;;11.00;99.90;;;;;;4991872;28;20469;-71
2024/02/15 05:06:07;;;;;;;7.50;4.30;;;11.00;99.90;;;;;;4993725;28;20483;-71
2024/02/15 05:08:36;;;;;;;8.90;4.80;;;11.10;99.90;;;;;;4993363;28;20501;-71
2024/02/15 05:11:05;;;;;;;8.00;4.97;;;11.20;99.90;;;;;;4992695;28;20529;-71
2024/02/15 05:13:32;;;;;;;11.10;5.43;;;11.30;99.90;;;;;;4988225;28;20467;-71
2024/02/15 05:15:59;;;;;;;16.43;5.80;;;11.30;99.90;;;;;;4990440;28;20467;-71
2024/02/15 05:18:27;;;;;;;8.90;6.70;;;11.40;99.90;;;;;;4990527;28;20467;-71
2024/02/15 05:20:54;;;;;;;9.43;4.80;;;11.40;99.90;;;;;;4994032;28;20490;-72
2024/02/15 05:23:21;;;;;;;7.80;5.30;;;11.50;99.90;;;;;;4992850;28;20489;-71
2024/02/15 05:25:48;;;;;;;10.03;4.70;;;11.50;99.90;;;;;;4992870;28;20490;-71
2024/02/15 05:28:15;;;;;;;10.67;5.60;;;11.50;99.90;;;;;;4992702;28;20467;-72
2024/02/15 05:30:42;;;;;;;8.60;4.87;;;11.50;99.90;;;;;;4990249;28;20581;-71
2024/02/15 05:33:10;;;;;;;11.37;6.13;;;11.50;99.90;;;;;;4998508;28;21018;-71
2024/02/15 05:35:39;;;;;;;8.17;4.90;;;11.60;99.90;;;;;;4987583;28;20513;-71
2024/02/15 05:38:06;;;;;;;11.87;5.80;;;11.60;99.90;;;;;;4990666;28;20462;-71
2024/02/15 05:40:33;;;;;;;9.30;4.93;;;11.60;99.90;;;;;;4993178;28;20846;-71
2024/02/15 05:43:01;;;;;;;12.50;6.23;;;11.60;99.90;;;;;;4993412;28;20471;-72
2024/02/15 05:45:34;;;;;;;10.53;5.50;;;11.60;99.90;;;;;;4988738;28;20843;-72
2024/02/15 05:48:00;;;;;;;10.73;5.67;;;11.60;99.90;;;;;;4990057;28;20475;-72
2024/02/15 05:50:29;;;;;;;17.23;7.50;;;11.60;99.90;;;;;;4992390;28;20826;-71
2024/02/15 05:52:58;;;;;;;12.30;6.23;;;11.60;99.90;;;;;;4994372;28;20472;-71
2024/02/15 05:55:26;;;;;;;11.10;5.53;;;11.60;99.90;;;;;;4992678;28;20490;-71
2024/02/15 05:57:53;;;;;;;10.67;6.00;;;11.60;99.90;;;;;;4992081;28;20952;-72
2024/02/15 06:00:20;;;;;;;11.83;5.53;;;11.60;99.90;;;;;;4992317;28;20536;-71
2024/02/15 06:02:47;;;;;;;10.20;6.00;;;11.60;99.90;;;;;;4999920;28;20470;-71
2024/02/15 06:05:16;;;;;;;14.37;6.33;;;11.60;99.90;;;;;;4993660;28;20539;-71
2024/02/15 06:07:44;;;;;;;12.40;6.10;;;11.60;99.90;;;;;;4991883;28;21012;-72
2024/02/15 06:10:13;;;;;;;10.67;5.47;;;11.60;99.90;;;;;;4992404;28;20462;-72
2024/02/15 06:12:40;;;;;;;12.57;7.00;;;11.60;99.90;;;;;;4993424;28;20476;-72
2024/02/15 06:15:14;;;;;;;12.73;6.33;;;11.60;99.90;;;;;;4991246;28;20481;-72
2024/02/15 06:17:41;;;;;;;11.90;5.80;;;11.60;99.90;;;;;;4990305;28;20546;-73
2024/02/15 06:20:09;;;;;;;10.20;6.83;;;11.60;99.90;;;;;;4991934;28;20921;-72
2024/02/15 06:22:39;;;;;;;11.77;6.33;;;11.60;99.90;;;;;;4993282;28;20467;-71
2024/02/15 06:25:06;;;;;;;14.13;7.07;;;11.60;99.90;;;;;;4991916;28;20467;-71
2024/02/15 06:27:36;;;;;;;15.10;8.10;;;11.60;99.90;;;;;;4991520;28;20486;-70
2024/02/15 06:41:00;;;;;;;12.50;6.90;;;11.50;99.90;;;;;;4989298;28;20494;-71
2024/02/15 06:43:28;;;;;;;11.67;5.60;;;11.40;99.90;;;;;;4993382;28;20462;-70
2024/02/15 06:45:55;;;;;;;12.80;6.80;;;11.40;99.90;;;;;;4992766;28;20495;-69
2024/02/15 06:48:21;;;;;;;8.50;5.63;;;11.40;99.90;;;;;;4991375;28;20477;-71
2024/02/15 06:50:49;;;;;;;13.53;6.87;;;11.40;99.90;;;;;;4990712;28;20494;-71
2024/02/15 06:53:16;;;;;;;17.50;7.03;;;11.40;99.90;;;;;;4991159;28;20463;-69
2024/02/15 06:55:42;;;;;;;8.77;5.90;;;11.40;99.90;;;;;;4987652;28;20467;-70
2024/02/15 06:58:09;;;;;;;15.50;6.53;;;11.50;99.90;;;;;;4988180;28;20498;-71
2024/02/15 07:00:39;;;;;;;13.37;6.17;;;11.50;99.90;;;;;;4985510;28;20513;-70
2024/02/15 07:03:07;;;;;;;9.20;6.17;;;11.60;99.90;;;;;;4987910;28;20530;-69
2024/02/15 07:05:34;;;;;;;12.10;5.90;;;11.60;99.90;;;;;;4988439;28;20502;-69
2024/02/15 07:08:01;;;;;;;16.60;6.80;;;11.60;99.90;;;;;;4989173;28;20837;-70
2024/02/15 07:10:28;;;;;;;11.43;7.50;;;11.60;99.90;;;;;;4982688;28;20502;-69
2024/02/15 07:12:56;;;;;;;10.93;6.10;;;11.60;99.90;;;;;;4982992;28;20468;-70
2024/02/15 07:15:23;;;;;;;14.47;6.00;;;11.60;99.90;;;;;;4985297;28;20522;-71
2024/02/15 07:17:54;;;;;;;15.07;6.17;;;11.60;99.90;;;;;;4989717;28;20835;-71
2024/02/15 07:20:22;;;;;;;11.90;5.90;;;11.60;99.90;;;;;;4988140;28;20571;-70
2024/02/15 07:22:49;;;;;;;12.23;5.90;;;11.60;99.90;;;;;;4989517;28;20499;-70
2024/02/15 07:25:16;;;;;;;14.40;6.80;;;11.70;99.90;;;;;;4988910;28;20978;-70
2024/02/15 07:27:43;;;;;;;9.70;5.90;;;11.70;99.90;;;;;;4990714;28;20490;-70
2024/02/15 07:30:11;;;;;;;13.77;6.27;;;11.70;99.90;;;;;;4988462;28;20478;-70
2024/02/15 07:32:37;;;;;;;10.97;5.87;;;11.70;99.90;;;;;;4985955;28;20463;-68
2024/02/15 07:35:07;;;;;;;10.87;7.10;;;11.70;99.90;;;;;;4990038;28;20463;-71
2024/02/15 07:37:34;;;;;;;11.57;6.23;;;11.70;99.90;;;;;;4986775;28;20477;-70
2024/02/15 07:40:03;;;;;;;10.50;5.80;;;11.70;99.90;;;;;;4985225;28;20472;-70
2024/02/15 07:42:30;;;;;;;12.10;6.60;;;11.80;99.90;;;;;;4988790;28;20603;-71
2024/02/15 07:44:56;;;;;;;13.83;6.40;;;11.80;99.90;;;;;;4988765;28;20991;-71
2024/02/15 07:47:24;;;;;;;12.40;6.33;;;11.80;99.90;;;;;;4989817;28;20494;-72
2024/02/15 07:49:51;;;;;;;14.33;6.40;;;11.80;99.90;;;;;;4988634;28;20597;-70
2024/02/15 07:52:19;;;;;;;61.47;30.40;;;11.80;99.90;;;;;;4989821;28;21002;-71
2024/02/15 07:54:46;;;;;;;26.27;17.23;;;11.80;99.90;;;;;;4989350;28;20479;-71
2024/02/15 07:57:14;;;;;;;56.73;31.00;;;11.80;99.90;;;;;;4986380;28;20861;-71
2024/02/15 07:59:42;;;;;;;21.80;10.10;;;11.90;99.90;;;;;;4983391;28;20551;-71
2024/02/15 08:02:09;;;;;;;23.00;14.33;;;11.90;99.90;;;;;;4986616;28;20889;-71
2024/02/15 08:04:40;;;;;;;38.13;21.43;;;11.90;99.90;;;;;;4987540;28;20459;-69
2024/02/15 08:07:10;;;;;;;10.73;6.67;;;11.90;99.90;;;;;;4989052;28;20487;-71
2024/02/15 08:09:38;;;;;;;32.50;18.57;;;11.90;99.90;;;;;;4981968;28;20463;-71
2024/02/15 08:12:05;;;;;;;35.20;21.27;;;11.90;99.90;;;;;;4988859;28;20530;-70
2024/02/15 08:14:32;;;;;;;65.10;37.63;;;11.90;99.90;;;;;;4984461;28;20469;-70
2024/02/15 08:16:59;;;;;;;120.17;64.77;;;12.00;99.90;;;;;;4984804;28;20490;-70
2024/02/15 08:19:28;;;;;;;34.00;18.33;;;12.00;99.90;;;;;;4989546;28;20463;-70
2024/02/15 08:21:56;;;;;;;24.07;12.60;;;12.00;99.90;;;;;;4993456;28;20859;-70
2024/02/15 08:24:23;;;;;;;12.80;8.20;;;12.10;99.90;;;;;;4996134;28;20570;-70
2024/02/15 08:26:52;;;;;;;10.90;6.50;;;12.10;99.90;;;;;;4993249;28;20554;-70
2024/02/15 08:29:19;;;;;;;10.97;6.27;;;12.10;99.90;;;;;;4987908;28;20469;-70
2024/02/15 08:31:46;;;;;;;18.17;8.53;;;12.20;99.90;;;;;;4993317;28;20491;-70
2024/02/15 08:34:14;;;;;;;11.50;6.83;;;12.20;99.90;;;;;;4993718;28;20464;-70
2024/02/15 08:36:41;;;;;;;11.03;6.50;;;12.20;99.90;;;;;;4991671;28;20469;-70
2024/02/15 08:39:11;;;;;;;7.60;5.23;;;12.30;99.90;;;;;;4992738;28;20968;-70
2024/02/15 08:41:38;;;;;;;10.30;5.73;;;12.30;99.90;;;;;;4991599;28;20497;-71
2024/02/15 08:44:11;;;;;;;6.77;4.87;;;12.30;99.90;;;;;;4993267;28;20496;-70
2024/02/15 08:46:38;;;;;;;5.37;4.73;;;12.30;99.90;;;;;;4983076;28;20542;-70
2024/02/15 08:49:04;;;;;;;6.80;4.83;;;12.40;99.90;;;;;;4989226;28;20476;-69
2024/02/15 08:51:32;;;;;;;6.90;4.47;;;12.40;99.90;;;;;;4987539;28;20850;-70
2024/02/15 08:53:59;;;;;;;5.90;4.00;;;12.40;99.90;;;;;;4990775;28;20473;-70
2024/02/15 08:56:26;;;;;;;5.70;3.90;;;12.40;99.90;;;;;;4991629;28;20545;-70
2024/02/15 08:58:53;;;;;;;4.20;3.70;;;12.50;99.90;;;;;;4989104;28;20477;-72
2024/02/15 09:01:22;;;;;;;8.30;5.70;;;12.50;99.90;;;;;;4990077;28;20500;-70
2024/02/15 09:03:49;;;;;;;4.93;3.70;;;12.50;99.90;;;;;;4993712;28;20465;-70
2024/02/15 09:06:15;;;;;;;8.30;4.43;;;12.60;99.90;;;;;;4992434;28;20462;-70
2024/02/15 09:08:42;;;;;;;3.27;2.97;;;12.60;99.90;;;;;;4987465;28;20481;-70
2024/02/15 09:11:12;;;;;;;5.10;3.70;;;12.60;99.90;;;;;;4991021;28;20490;-70
2024/02/15 09:13:38;;;;;;;4.80;3.63;;;12.60;99.90;;;;;;4985649;28;20470;-70
2024/02/15 09:16:05;;;;;;;6.33;4.67;;;12.60;99.90;;;;;;4992301;28;20458;-70
2024/02/15 09:18:34;;;;;;;6.40;5.10;;;12.70;99.90;;;;;;4987601;28;20462;-70
2024/02/15 09:21:00;;;;;;;6.30;3.60;;;12.70;99.90;;;;;;4992364;28;20537;-70
2024/02/15 09:23:27;;;;;;;6.73;4.80;;;12.70;99.90;;;;;;4991741;28;20488;-71
2024/02/15 09:25:54;;;;;;;10.10;5.20;;;12.80;99.90;;;;;;4989321;28;20809;-70
2024/02/15 09:28:21;;;;;;;4.23;3.83;;;12.80;99.90;;;;;;4986220;28;20540;-70
2024/02/15 09:30:51;;;;;;;6.00;5.17;;;12.70;99.90;;;;;;4988446;28;21160;-70
2024/02/15 09:33:19;;;;;;;7.33;5.03;;;12.70;99.90;;;;;;4990498;28;20469;-70
2024/02/15 09:35:47;;;;;;;6.50;5.03;;;12.70;99.90;;;;;;4988566;28;20471;-70
2024/02/15 09:38:16;;;;;;;8.73;5.73;;;12.70;99.90;;;;;;4991990;28;20476;-70
2024/02/15 09:40:43;;;;;;;9.80;7.77;;;12.80;99.90;;;;;;4992695;28;20620;-70
2024/02/15 09:43:13;;;;;;;9.67;5.37;;;12.80;99.90;;;;;;4991139;28;20975;-70
2024/02/15 09:45:39;;;;;;;14.03;7.80;;;12.80;99.90;;;;;;4991323;28;20470;-70
2024/02/15 09:48:08;;;;;;;6.20;5.37;;;12.80;99.90;;;;;;4988636;28;20490;-71
2024/02/15 09:50:36;;;;;;;24.37;15.97;;;12.80;99.90;;;;;;4990942;28;20490;-70
2024/02/15 09:53:06;;;;;;;12.30;7.80;;;12.90;99.90;;;;;;4990960;28;20481;-70
2024/02/15 09:55:35;;;;;;;10.33;6.60;;;12.90;99.90;;;;;;4990731;28;20464;-71
2024/02/15 09:58:04;;;;;;;6.60;5.60;;;12.90;99.90;;;;;;4987696;28;20470;-70
2024/02/15 10:00:32;;;;;;;9.20;6.10;;;12.90;99.90;;;;;;4987969;28;20510;-70
2024/02/15 10:03:01;;;;;;;12.47;7.67;;;12.90;99.90;;;;;;4987777;28;20470;-70
2024/02/15 10:05:28;;;;;;;9.97;6.37;;;12.90;99.90;;;;;;4991674;28;20466;-71
2024/02/15 10:07:54;;;;;;;15.53;6.63;;;12.80;99.90;;;;;;4991600;28;20950;-71
2024/02/15 10:10:25;;;;;;;15.67;8.17;;;12.90;99.90;;;;;;4988493;28;20486;-71
2024/02/15 10:12:54;;;;;;;12.43;7.53;;;12.80;99.90;;;;;;4991849;28;20467;-71
2024/02/15 10:15:34;;;;;;;13.30;7.00;;;12.80;99.90;;;;;;4987335;28;20474;-71
2024/02/15 10:18:02;;;;;;;14.80;7.67;;;12.80;99.90;;;;;;4991031;28;20537;-71
2024/02/15 10:20:28;;;;;;;15.50;7.43;;;12.80;99.90;;;;;;4990155;28;20652;-71
2024/02/15 10:23:10;;;;;;;11.80;7.70;;;12.80;99.90;;;;;;4986081;28;20471;-71
2024/02/15 10:25:39;;;;;;;17.80;8.73;;;12.80;99.90;;;;;;4990550;28;20464;-70
2024/02/15 10:28:06;;;;;;;12.57;8.10;;;12.90;99.90;;;;;;4990795;28;20493;-71
2024/02/15 10:30:35;;;;;;;17.60;9.43;;;12.90;99.90;;;;;;4989316;28;20633;-71
2024/02/15 10:33:04;;;;;;;12.63;8.37;;;12.90;99.90;;;;;;4989880;28;20473;-70
2024/02/15 10:35:34;;;;;;;21.37;10.63;;;12.90;99.90;;;;;;4989880;28;20471;-70
2024/02/15 10:38:13;;;;;;;22.80;12.70;;;12.90;99.90;;;;;;4990363;28;20988;-71
2024/02/15 10:40:45;;;;;;;24.87;11.50;;;12.90;99.90;;;;;;4988380;28;20490;-70
2024/02/15 10:43:18;;;;;;;25.60;11.83;;;12.90;99.90;;;;;;4989759;28;20470;-70
2024/02/15 10:45:49;;;;;;;21.80;12.80;;;12.90;99.90;;;;;;4989632;28;20474;-70
2024/02/15 10:48:24;;;;;;;23.00;10.53;;;12.90;99.90;;;;;;4989530;28;20491;-70
2024/02/15 10:50:57;;;;;;;21.60;12.03;;;13.00;99.90;;;;;;4988744;28;20552;-70
2024/02/15 10:53:40;;;;;;;26.63;12.53;;;12.90;99.90;;;;;;4988533;28;20465;-71
2024/02/15 10:56:19;;;;;;;23.13;12.50;;;12.90;99.90;;;;;;4988802;28;20833;-70
2024/02/15 10:59:13;;;;;;;17.63;9.60;;;12.80;99.90;;;;;;4989549;28;20473;-70
2024/02/15 11:01:52;;;;;;;15.50;10.20;;;12.90;99.90;;;;;;4989017;28;20494;-70
2024/02/15 11:04:31;;;;;;;23.77;11.77;;;13.00;99.90;;;;;;4986957;28;20472;-70
2024/02/15 11:07:11;;;;;;;18.57;10.93;;;13.00;99.90;;;;;;4986541;28;20476;-70
2024/02/15 11:09:39;;;;;;;27.93;13.30;;;13.00;99.90;;;;;;4985266;28;20611;-70
2024/02/15 11:12:19;;;;;;;21.63;11.90;;;13.10;99.90;;;;;;4990299;28;20568;-70
2024/02/15 11:14:51;;;;;;;18.13;10.97;;;13.00;99.90;;;;;;4990281;28;20968;-67
2024/02/15 11:17:54;;;;;;;19.13;10.00;;;13.00;99.90;;;;;;4983829;28;20461;-73
2024/02/15 11:23:37;;;;;;;19.67;12.10;;;12.90;99.90;;;;;;4980811;28;20488;-71
2024/02/15 11:26:29;;;;;;;41.87;19.20;;;12.90;99.90;;;;;;4988166;28;20506;-71
2024/02/15 11:29:00;;;;;;;18.47;12.17;;;12.80;99.90;;;;;;4989731;28;20497;-73
2024/02/15 11:32:04;;;;;;;26.33;16.27;;;12.80;99.90;;;;;;4988949;28;21068;-71
2024/02/15 11:34:49;;;;;;;30.27;17.00;;;12.90;99.90;;;;;;4990886;28;20502;-72
2024/02/15 11:41:15;;;;;;;19.90;11.57;;;12.80;99.90;;;;;;4976168;28;20940;-71
2024/02/15 11:44:10;;;;;;;13.83;10.53;;;12.90;99.90;;;;;;4988673;28;20498;-72
2024/02/15 11:47:04;;;;;;;26.63;13.60;;;12.90;99.90;;;;;;4985737;28;20470;-73
2024/02/15 11:49:44;;;;;;;20.37;10.53;;;13.00;99.90;;;;;;4986970;28;20533;-73
2024/02/15 11:52:31;;;;;;;30.33;16.10;;;13.10;99.90;;;;;;4990309;28;20553;-73
2024/02/15 11:55:12;;;;;;;21.40;10.77;;;13.10;99.90;;;;;;4985367;28;20521;-72
2024/02/15 11:58:00;;;;;;;22.17;11.60;;;13.10;99.90;;;;;;4987899;28;20891;-71
2024/02/15 12:20:24;;;;;;;10.30;7.87;;;13.30;99.90;;;;;;4983398;28;20828;-71
2024/02/15 12:22:52;;;;;;;12.30;8.50;;;13.20;99.90;;;;;;4987247;28;20477;-71
2024/02/15 12:25:21;;;;;;;11.60;8.40;;;13.20;99.90;;;;;;4986122;28;20952;-71
2024/02/15 12:27:53;;;;;;;14.47;8.80;;;13.20;99.90;;;;;;4988470;28;20956;-73
2024/02/15 12:30:21;;;;;;;15.70;10.77;;;13.20;99.90;;;;;;4986504;28;20994;-73
2024/02/15 12:32:50;;;;;;;16.67;11.57;;;13.20;99.90;;;;;;4987963;28;20924;-73
2024/02/15 12:35:20;;;;;;;12.87;8.13;;;13.20;99.90;;;;;;4989911;28;20740;-72
2024/02/15 12:37:47;;;;;;;13.30;6.60;;;13.20;99.90;;;;;;4988156;28;20956;-71
2024/02/15 12:40:17;;;;;;;11.37;7.50;;;13.10;99.90;;;;;;4985870;28;20968;-71
2024/02/15 12:42:44;;;;;;;16.13;8.90;;;13.10;99.90;;;;;;4989250;28;20493;-71
2024/02/15 12:45:20;;;;;;;10.20;7.40;;;13.10;99.90;;;;;;4989417;28;20469;-71
2024/02/15 12:47:49;;;;;;;10.00;7.50;;;13.10;99.90;;;;;;4987617;28;20489;-71
2024/02/15 12:50:17;;;;;;;15.60;8.73;;;13.10;99.90;;;;;;4987968;28;20540;-73
2024/02/15 12:52:47;;;;;;;10.40;7.57;;;13.10;99.90;;;;;;4989316;28;20543;-71
2024/02/15 12:55:16;;;;;;;8.20;5.53;;;12.70;99.90;;;;;;4988859;28;20485;-71
2024/02/15 12:57:45;;;;;;;5.47;4.77;;;13.00;99.90;;;;;;4988982;28;20864;-71
2024/02/15 13:00:17;;;;;;;12.53;8.63;;;12.90;99.90;;;;;;4988667;28;20569;-71
2024/02/15 13:02:44;;;;;;;5.20;4.73;;;12.80;99.90;;;;;;4987383;28;20742;-71
2024/02/15 13:05:13;;;;;;;9.60;7.53;;;12.80;99.90;;;;;;4988965;28;20474;-72
2024/02/15 13:07:40;;;;;;;4.10;3.80;;;12.80;99.90;;;;;;4990475;28;20501;-70
2024/02/15 13:10:08;;;;;;;4.17;3.73;;;12.70;99.90;;;;;;4991401;28;20473;-72
2024/02/15 13:12:35;;;;;;;4.17;3.87;;;12.70;99.90;;;;;;4992434;28;20480;-71
2024/02/15 13:15:04;;;;;;;2.97;2.87;;;12.70;99.90;;;;;;4991357;28;20976;-71
2024/02/15 13:17:31;;;;;;;16.97;11.30;;;12.60;99.90;;;;;;4986928;28;20535;-72
2024/02/15 13:20:04;;;;;;;6.63;5.97;;;12.60;99.90;;;;;;4989759;28;20476;-72
2024/02/15 13:22:34;;;;;;;11.37;6.43;;;12.50;99.90;;;;;;4990823;28;20576;-73
2024/02/15 13:25:03;;;;;;;9.00;5.87;;;12.50;99.90;;;;;;4992172;28;20542;-71
2024/02/15 13:27:29;;;;;;;23.97;13.03;;;12.40;99.90;;;;;;4985184;28;20832;-72
2024/02/15 13:29:56;;;;;;;9.33;7.93;;;12.40;99.90;;;;;;4991998;28;20453;-70
2024/02/15 13:32:23;;;;;;;7.20;5.10;;;12.40;99.90;;;;;;4991709;28;20494;-71
2024/02/15 13:34:51;;;;;;;4.47;3.97;;;12.40;99.90;;;;;;4991982;28;20460;-71
2024/02/15 13:37:20;;;;;;;6.50;5.87;;;13.30;99.90;;;;;;4992702;28;20499;-73
2024/02/15 13:39:49;;;;;;;20.83;12.00;;;12.40;99.90;;;;;;4989196;28;20528;-72
2024/02/15 13:42:17;;;;;;;20.33;12.67;;;12.30;99.90;;;;;;4992533;28;20489;-72
2024/02/15 13:44:43;;;;;;;16.87;11.47;;;12.30;99.90;;;;;;4988814;28;20889;-71
2024/02/15 13:47:11;;;;;;;6.60;5.13;;;12.30;99.90;;;;;;4989867;28;20467;-72
2024/02/15 13:49:38;;;;;;;4.93;4.47;;;12.30;99.90;;;;;;4989960;28;20536;-73
2024/02/15 13:52:06;;;;;;;7.37;4.20;;;12.30;99.90;;;;;;4986563;28;20499;-71
2024/02/15 13:54:33;;;;;;;9.93;5.33;;;12.30;99.90;;;;;;4988263;28;20473;-74
2024/02/15 13:57:02;;;;;;;10.87;7.10;;;12.30;99.90;;;;;;4987284;28;20464;-70
2024/02/15 13:59:29;;;;;;;8.60;5.90;;;12.30;99.90;;;;;;4988571;28;20464;-71
2024/02/15 14:01:56;;;;;;;5.80;5.30;;;12.30;99.90;;;;;;4988698;28;20496;-72
2024/02/15 14:04:23;;;;;;;12.63;6.90;;;12.30;99.90;;;;;;4991647;28;20487;-73
2024/02/15 14:06:50;;;;;;;9.83;6.17;;;12.30;99.90;;;;;;4992842;28;20468;-71
2024/02/15 14:09:17;;;;;;;8.27;5.90;;;12.30;99.90;;;;;;4990716;28;20495;-72
2024/02/15 14:11:44;;;;;;;5.50;4.80;;;12.30;99.90;;;;;;4990926;28;20546;-70
2024/02/15 14:14:12;;;;;;;7.80;4.67;;;12.30;99.90;;;;;;4989821;28;20619;-73
2024/02/15 14:16:40;;;;;;;7.97;5.73;;;12.30;99.90;;;;;;4990570;28;20465;-72
2024/02/15 14:19:06;;;;;;;5.83;5.00;;;12.30;99.90;;;;;;4990943;28;20527;-72
2024/02/15 14:21:38;;;;;;;4.13;3.73;;;12.30;99.90;;;;;;4991560;28;20494;-72
2024/02/15 14:24:08;;;;;;;6.53;5.97;;;12.40;99.90;;;;;;4990054;28;20910;-71
2024/02/15 14:26:35;;;;;;;4.10;3.90;;;12.30;99.90;;;;;;4991938;28;20501;-72
2024/02/15 14:29:03;;;;;;;6.80;4.40;;;12.40;99.90;;;;;;4988308;28;20924;-72
2024/02/15 14:34:17;;;;;;;9.50;4.70;;;12.20;99.90;;;;;;4986125;28;20483;-73
2024/02/15 14:36:45;;;;;;;5.70;5.03;;;12.20;99.90;;;;;;4989245;28;20559;-72
2024/02/15 14:39:13;;;;;;;5.73;5.13;;;12.20;99.90;;;;;;4988750;28;20609;-72
2024/02/15 14:41:40;;;;;;;4.60;4.03;;;12.30;99.90;;;;;;4990804;28;20476;-72
2024/02/15 14:44:07;;;;;;;4.40;4.10;;;12.50;99.90;;;;;;4991739;28;20463;-72
2024/02/15 14:46:35;;;;;;;6.03;3.67;;;12.50;99.90;;;;;;4987459;28;20469;-72
2024/02/15 14:49:03;;;;;;;4.70;4.13;;;12.50;99.90;;;;;;4989241;28;20626;-71
2024/02/15 14:51:30;;;;;;;4.43;4.03;;;12.50;99.90;;;;;;4993001;28;20495;-73
2024/02/15 14:53:58;;;;;;;4.43;3.57;;;12.60;99.90;;;;;;4991103;28;20494;-71
2024/02/15 14:56:25;;;;;;;4.90;4.50;;;12.60;99.90;;;;;;4990806;28;20465;-72
2024/02/15 14:58:52;;;;;;;3.47;3.17;;;12.60;99.90;;;;;;4986573;28;20481;-72
2024/02/15 15:01:19;;;;;;;3.70;3.53;;;12.60;99.90;;;;;;4990103;28;20925;-72
2024/02/15 15:03:54;;;;;;;5.17;4.70;;;12.60;99.90;;;;;;4990215;28;20496;-72
2024/02/15 15:14:34;;;;;;;5.60;4.47;;;12.70;99.90;;;;;;4984040;28;20448;-70
2024/02/15 15:17:01;;;;;;;7.40;4.53;;;12.70;99.90;;;;;;4975489;28;20468;-72
2024/02/15 15:19:29;;;;;;;10.20;7.20;;;12.70;99.90;;;;;;4983025;28;20488;-71
2024/02/15 15:21:56;;;;;;;5.70;5.30;;;12.70;99.90;;;;;;4986416;28;20490;-71
2024/02/15 15:24:23;;;;;;;4.60;4.33;;;12.70;99.90;;;;;;4988915;28;20469;-70
2024/02/15 15:26:49;;;;;;;3.93;3.70;;;12.70;99.90;;;;;;4988451;28;20497;-70
2024/02/15 15:29:16;;;;;;;6.47;5.00;;;12.70;99.90;;;;;;4987550;28;20496;-72
2024/02/15 15:31:43;;;;;;;11.57;6.00;;;12.70;99.90;;;;;;4982819;28;20501;-71
2024/02/15 15:34:09;;;;;;;6.00;5.40;;;12.50;99.90;;;;;;4988199;28;20482;-71
2024/02/15 15:36:39;;;;;;;5.57;5.07;;;13.00;99.90;;;;;;4988173;28;20907;-71
2024/02/15 15:39:09;;;;;;;5.80;5.10;;;12.70;99.90;;;;;;4987651;28;20914;-71
2024/02/15 15:41:36;;;;;;;3.93;3.63;;;12.70;99.90;;;;;;4989275;28;20481;-71
2024/02/15 15:44:04;;;;;;;3.90;3.60;;;;;;;;;;4984842;28;20537;-71
2024/02/15 15:46:33;;;;;;;5.20;4.70;;;12.50;99.90;;;;;;4988795;28;20467;-71
2024/02/15 15:49:00;;;;;;;4.40;4.03;;;13.50;99.90;;;;;;4986508;28;20637;-70
2024/02/15 15:51:27;;;;;;;4.43;4.10;;;12.60;99.90;;;;;;4990625;28;20496;-71
2024/02/15 15:53:55;;;;;;;5.53;4.20;;;12.60;99.90;;;;;;4988854;28;20468;-70
2024/02/15 15:56:22;;;;;;;4.33;4.03;;;12.60;99.90;;;;;;4984671;28;20587;-71
2024/02/15 15:58:49;;;;;;;4.17;3.87;;;12.60;99.90;;;;;;4987773;28;20880;-71
2024/02/15 16:01:17;;;;;;;4.80;4.50;;;12.60;99.90;;;;;;4985923;28;20493;-72
2024/02/15 16:03:45;;;;;;;4.80;4.40;;;12.60;99.90;;;;;;4985772;28;20947;-71
2024/02/15 16:06:14;;;;;;;4.97;4.50;;;12.60;99.90;;;;;;4989991;28;20807;-72
2024/02/15 16:08:42;;;;;;;3.93;3.63;;;12.60;99.90;;;;;;4991429;28;20492;-72
2024/02/15 16:11:13;;;;;;;3.63;3.33;;;12.60;99.90;;;;;;4985890;28;20499;-71
2024/02/15 16:13:42;;;;;;;4.27;3.70;;;12.50;99.90;;;;;;4988284;28;20471;-71
2024/02/15 16:16:09;;;;;;;4.30;3.97;;;12.40;99.90;;;;;;4986259;28;20500;-71
2024/02/15 16:18:37;;;;;;;4.23;3.93;;;12.40;99.90;;;;;;4982476;28;20467;-71
2024/02/15 16:21:04;;;;;;;4.73;4.10;;;12.30;99.90;;;;;;4987783;28;20620;-71
2024/02/15 16:23:31;;;;;;;3.33;3.23;;;12.20;99.90;;;;;;4991420;28;20474;-71
2024/02/15 16:25:59;;;;;;;3.67;3.43;;;12.20;99.90;;;;;;4987623;28;21242;-72
2024/02/15 16:28:27;;;;;;;3.90;3.67;;;12.20;99.90;;;;;;4988517;28;20550;-70
2024/02/15 16:30:54;;;;;;;9.80;4.60;;;12.20;99.90;;;;;;4986536;28;20492;-70
2024/02/15 16:33:21;;;;;;;4.43;4.13;;;12.10;99.90;;;;;;4988411;28;20519;-71
2024/02/15 16:35:48;;;;;;;5.70;3.70;;;12.10;99.90;;;;;;4986535;28;20475;-73
2024/02/15 16:38:16;;;;;;;3.63;3.43;;;12.10;99.90;;;;;;4986405;28;20468;-74
2024/02/15 16:40:42;;;;;;;6.30;4.37;;;12.20;99.90;;;;;;4995417;28;20513;-72
2024/02/15 16:43:09;;;;;;;3.97;3.43;;;12.20;99.90;;;;;;4990204;28;20476;-72
2024/02/15 16:45:39;;;;;;;4.67;4.00;;;12.10;99.90;;;;;;4989753;28;20509;-72
2024/02/15 16:48:06;;;;;;;4.93;4.17;;;12.10;99.90;;;;;;4992234;28;20491;-72
2024/02/15 16:50:33;;;;;;;5.73;4.03;;;12.10;99.90;;;;;;4992603;28;20958;-72
2024/02/15 16:53:00;;;;;;;4.17;3.87;;;12.10;99.90;;;;;;4990417;28;20478;-70
2024/02/15 16:55:30;;;;;;;3.67;3.37;;;12.10;99.90;;;;;;4987659;28;20472;-72
2024/02/15 16:58:02;;;;;;;3.53;3.30;;;12.00;99.90;;;;;;4987874;28;20990;-71
2024/02/15 17:00:29;;;;;;;4.93;4.33;;;12.10;99.90;;;;;;4987519;28;20760;-71
2024/02/15 17:02:57;;;;;;;4.30;3.53;;;12.10;99.90;;;;;;4989227;28;20470;-72
2024/02/15 17:05:24;;;;;;;4.03;3.70;;;12.10;99.90;;;;;;4991225;28;20467;-71
2024/02/15 17:07:53;;;;;;;3.07;2.90;;;12.10;99.90;;;;;;4989098;28;20460;-71
2024/02/15 17:10:20;;;;;;;4.87;3.23;;;12.10;99.90;;;;;;4990749;28;20510;-72
2024/02/15 17:12:47;;;;;;;4.30;3.80;;;12.10;99.90;;;;;;4992748;28;20994;-72
2024/02/15 17:15:13;;;;;;;3.70;3.40;;;12.10;99.90;;;;;;4993815;28;20475;-70
2024/02/15 17:17:41;;;;;;;2.80;2.70;;;12.10;99.90;;;;;;4992932;28;20467;-71
2024/02/15 17:20:14;;;;;;;4.20;3.80;;;12.10;99.90;;;;;;4988387;28;20465;-70
2024/02/15 17:22:42;;;;;;;4.10;3.90;;;12.10;99.90;;;;;;4990271;28;20922;-70
2024/02/15 17:25:11;;;;;;;4.53;4.33;;;12.10;99.90;;;;;;4993902;28;20474;-72
2024/02/15 17:27:38;;;;;;;5.37;4.87;;;12.10;99.90;;;;;;4995629;28;20468;-70
2024/02/15 17:30:08;;;;;;;5.97;4.47;;;12.10;99.90;;;;;;4989337;28;20619;-70
2024/02/15 17:32:35;;;;;;;4.57;4.10;;;12.20;99.90;;;;;;4990652;28;20480;-70
2024/02/15 17:35:02;;;;;;;4.43;4.23;;;12.20;99.90;;;;;;4988273;28;20463;-69
2024/02/15 17:37:31;;;;;;;4.00;3.00;;;12.20;99.90;;;;;;4985273;28;20565;-69
2024/02/15 17:39:57;;;;;;;3.90;3.70;;;12.20;99.90;;;;;;4985721;28;20548;-71
2024/02/15 17:42:24;;;;;;;3.50;3.30;;;12.30;99.90;;;;;;4995279;28;20504;-68
2024/02/15 17:44:51;;;;;;;4.50;4.30;;;12.30;99.90;;;;;;4997947;28;20472;-69
2024/02/15 17:47:18;;;;;;;6.77;3.60;;;12.30;99.90;;;;;;4996517;28;20475;-69
2024/02/15 17:49:45;;;;;;;3.37;3.17;;;12.30;99.90;;;;;;4991395;28;20485;-69
2024/02/15 17:52:11;;;;;;;2.70;2.50;;;12.30;99.90;;;;;;4992504;28;20494;-70
2024/02/15 17:54:39;;;;;;;3.57;3.27;;;12.30;99.90;;;;;;4989873;28;20468;-70
2024/02/15 17:57:06;;;;;;;3.43;3.23;;;12.30;99.90;;;;;;4994880;28;20467;-70
2024/02/15 17:59:33;;;;;;;3.73;3.47;;;12.40;99.90;;;;;;4990601;28;21342;-70
2024/02/15 18:01:59;;;;;;;3.80;3.23;;;12.30;99.90;;;;;;4987442;28;20499;-70
2024/02/15 18:04:26;;;;;;;2.93;2.83;;;12.30;99.90;;;;;;4988885;28;20486;-70
2024/02/15 18:06:53;;;;;;;4.90;3.67;;;12.30;99.90;;;;;;4993314;28;20464;-70
2024/02/15 18:09:20;;;;;;;4.93;4.50;;;12.30;99.90;;;;;;4993471;28;20491;-70
2024/02/15 18:11:48;;;;;;;3.87;3.53;;;12.30;99.90;;;;;;4989263;28;20497;-71
2024/02/15 18:14:16;;;;;;;3.50;3.27;;;12.30;99.90;;;;;;4990259;28;20470;-70
2024/02/15 18:16:48;;;;;;;3.07;2.90;;;12.30;99.90;;;;;;4989793;28;20472;-70
2024/02/15 18:19:14;;;;;;;3.67;3.47;;;12.30;99.90;;;;;;4990591;28;20610;-70
2024/02/15 18:21:41;;;;;;;5.70;3.60;;;12.30;99.90;;;;;;4990529;28;20851;-71
2024/02/15 18:24:11;;;;;;;3.53;3.30;;;12.30;99.90;;;;;;4992711;28;20524;-71
2024/02/15 18:26:38;;;;;;;3.60;3.43;;;12.30;99.90;;;;;;4993190;28;20527;-70
2024/02/15 18:29:06;;;;;;;4.50;3.90;;;12.30;99.90;;;;;;4991467;28;20483;-68
2024/02/15 18:31:35;;;;;;;3.23;3.03;;;12.30;99.90;;;;;;4990264;28;20829;-69
2024/02/15 18:34:06;;;;;;;3.80;3.50;;;12.30;99.90;;;;;;4994006;28;20467;-70
2024/02/15 18:36:35;;;;;;;4.07;3.87;;;12.30;99.90;;;;;;4992059;28;20515;-69
2024/02/15 18:39:02;;;;;;;7.03;3.10;;;12.30;99.90;;;;;;4990849;28;20511;-69